createdAt,value
2022-08-31T00:00:39.243Z,17.18
2022-08-31T00:03:27.273Z,17.13
2022-08-31T00:06:01.520Z,17.07
2022-08-31T00:08:30.596Z,17.03
2022-08-31T00:10:59.147Z,16.99
2022-08-31T00:13:29.284Z,16.95
2022-08-31T00:15:58.417Z,16.91
2022-08-31T00:18:26.513Z,16.88
2022-08-31T00:20:54.987Z,16.84
2022-08-31T00:23:22.804Z,16.81
2022-08-31T00:25:50.992Z,16.77
2022-08-31T00:28:19.412Z,16.74
2022-08-31T00:30:47.634Z,16.71
2022-08-31T00:33:16.538Z,16.69
2022-08-31T00:35:45.150Z,16.66
2022-08-31T00:38:14.252Z,16.63
2022-08-31T00:40:47.142Z,16.60
2022-08-31T00:43:46.370Z,16.57
2022-08-31T00:46:24.227Z,16.53
2022-08-31T00:49:12.178Z,16.50
2022-08-31T00:51:48.823Z,16.47
2022-08-31T00:54:21.400Z,16.43
2022-08-31T00:56:49.154Z,16.39
2022-08-31T00:59:19.235Z,16.35
2022-08-31T01:01:48.235Z,16.32
2022-08-31T01:04:16.985Z,16.29
2022-08-31T01:06:46.200Z,16.25
2022-08-31T01:09:14.396Z,16.23
2022-08-31T01:11:43.179Z,16.19
2022-08-31T01:14:12.014Z,16.16
2022-08-31T01:16:47.568Z,16.14
2022-08-31T01:19:29.522Z,16.10
2022-08-31T01:22:30.996Z,16.07
2022-08-31T01:24:59.290Z,16.05
2022-08-31T01:27:30.908Z,16.03
2022-08-31T01:30:01.445Z,16.01
2022-08-31T01:32:29.424Z,15.98
2022-08-31T01:34:57.892Z,15.97
2022-08-31T01:37:29.366Z,15.95
2022-08-31T01:39:58.450Z,15.93
2022-08-31T01:42:33.632Z,15.91
2022-08-31T01:45:05.512Z,15.89
2022-08-31T01:47:33.453Z,15.86
2022-08-31T01:50:01.589Z,15.85
2022-08-31T01:52:29.734Z,15.82
2022-08-31T01:54:57.697Z,15.81
2022-08-31T01:57:33.958Z,15.78
2022-08-31T02:00:08.830Z,15.76
2022-08-31T02:02:37.191Z,15.73
2022-08-31T02:05:07.714Z,15.71
2022-08-31T02:07:35.692Z,15.69
2022-08-31T02:10:05.412Z,15.67
2022-08-31T02:12:33.329Z,15.65
2022-08-31T02:15:04.257Z,15.63
2022-08-31T02:17:32.113Z,15.61
2022-08-31T02:20:00.188Z,15.59
2022-08-31T02:22:28.065Z,15.57
2022-08-31T02:24:55.980Z,15.55
2022-08-31T02:27:24.802Z,15.54
2022-08-31T02:29:52.841Z,15.53
2022-08-31T02:32:21.549Z,15.53
2022-08-31T02:34:50.231Z,15.52
2022-08-31T02:37:21.079Z,15.51
2022-08-31T02:39:50.147Z,15.50
2022-08-31T02:42:18.602Z,15.49
2022-08-31T02:44:47.744Z,15.50
2022-08-31T02:47:15.635Z,15.49
2022-08-31T02:49:43.610Z,15.48
2022-08-31T02:52:11.525Z,15.49
2022-08-31T02:54:39.315Z,15.48
2022-08-31T02:57:07.285Z,15.47
2022-08-31T02:59:35.173Z,15.47
2022-08-31T03:02:03.105Z,15.46
2022-08-31T03:04:31.048Z,15.44
2022-08-31T03:06:58.944Z,15.43
2022-08-31T03:09:26.914Z,15.42
2022-08-31T03:11:54.921Z,15.41
2022-08-31T03:14:22.798Z,15.41
2022-08-31T03:16:51.979Z,15.42
2022-08-31T03:19:21.551Z,15.41
2022-08-31T03:21:56.218Z,15.40
2022-08-31T03:24:27.113Z,15.41
2022-08-31T03:26:56.000Z,15.39
2022-08-31T03:29:24.325Z,15.39
2022-08-31T03:31:52.484Z,15.38
2022-08-31T03:34:20.639Z,15.38
2022-08-31T03:36:48.775Z,15.37
2022-08-31T03:39:16.925Z,15.36
2022-08-31T03:41:47.724Z,15.36
2022-08-31T03:44:16.308Z,15.36
2022-08-31T03:46:47.801Z,15.36
2022-08-31T03:49:18.812Z,15.37
2022-08-31T03:51:46.806Z,15.37
2022-08-31T03:54:15.384Z,15.39
2022-08-31T03:56:43.358Z,15.38
2022-08-31T03:59:11.358Z,15.38
2022-08-31T04:01:39.429Z,15.39
2022-08-31T04:04:07.677Z,15.39
2022-08-31T04:06:35.719Z,15.40
2022-08-31T04:09:03.808Z,15.41
2022-08-31T04:11:44.430Z,15.41
2022-08-31T04:14:15.697Z,15.41
2022-08-31T04:16:44.101Z,15.41
2022-08-31T04:19:16.194Z,15.42
2022-08-31T04:21:44.618Z,15.44
2022-08-31T04:24:15.185Z,15.46
2022-08-31T04:26:45.701Z,15.50
2022-08-31T04:29:13.924Z,15.53
2022-08-31T04:31:42.349Z,15.56
2022-08-31T04:34:10.381Z,15.58
2022-08-31T04:36:38.691Z,15.59
2022-08-31T04:39:08.311Z,15.60
2022-08-31T04:41:38.332Z,15.61
2022-08-31T04:44:07.003Z,15.61
2022-08-31T04:46:37.627Z,15.61
2022-08-31T04:49:08.156Z,15.59
2022-08-31T04:51:38.407Z,15.57
2022-08-31T04:54:10.558Z,15.55
2022-08-31T04:56:45.627Z,15.53
2022-08-31T04:59:18.000Z,15.51
2022-08-31T05:01:49.175Z,15.50
2022-08-31T05:04:17.516Z,15.49
2022-08-31T05:06:47.119Z,15.48
2022-08-31T05:09:20.704Z,15.47
2022-08-31T05:11:51.854Z,15.48
2022-08-31T05:14:22.240Z,15.48
2022-08-31T05:16:51.604Z,15.48
2022-08-31T05:19:20.595Z,15.49
2022-08-31T05:21:48.891Z,15.50
2022-08-31T05:24:21.745Z,15.51
2022-08-31T05:26:53.935Z,15.52
2022-08-31T05:29:24.940Z,15.55
2022-08-31T05:31:53.243Z,15.57
2022-08-31T05:34:22.124Z,15.60
2022-08-31T05:36:54.340Z,15.63
2022-08-31T05:39:28.713Z,15.66
2022-08-31T05:41:57.201Z,15.69
2022-08-31T05:44:32.045Z,15.73
2022-08-31T05:47:03.367Z,15.76
2022-08-31T05:49:33.153Z,15.79
2022-08-31T05:52:10.433Z,15.83
2022-08-31T05:54:40.267Z,15.88
2022-08-31T05:57:08.652Z,15.93
2022-08-31T05:59:39.486Z,15.99
2022-08-31T06:02:11.117Z,16.05
2022-08-31T06:04:39.135Z,16.10
2022-08-31T06:07:07.425Z,16.15
2022-08-31T06:09:35.399Z,16.20
2022-08-31T06:12:04.263Z,16.23
2022-08-31T06:14:33.677Z,16.28
2022-08-31T06:17:01.979Z,16.32
2022-08-31T06:19:30.084Z,16.36
2022-08-31T06:21:58.922Z,16.40
2022-08-31T06:24:26.949Z,16.45
2022-08-31T06:26:59.404Z,16.50
2022-08-31T06:29:31.677Z,16.56
2022-08-31T06:32:00.641Z,16.62
2022-08-31T06:34:32.377Z,16.69
2022-08-31T06:37:01.452Z,16.76
2022-08-31T06:39:29.606Z,16.83
2022-08-31T06:41:57.571Z,16.91
2022-08-31T06:44:28.520Z,16.98
2022-08-31T06:46:56.902Z,17.05
2022-08-31T06:49:24.745Z,17.12
2022-08-31T06:51:55.745Z,17.20
2022-08-31T06:54:31.902Z,17.28
2022-08-31T06:57:00.085Z,17.37
2022-08-31T06:59:29.602Z,17.46
2022-08-31T07:02:02.345Z,17.58
2022-08-31T07:04:42.217Z,17.70
2022-08-31T07:07:18.265Z,17.84
2022-08-31T07:09:46.462Z,17.94
2022-08-31T07:12:14.255Z,18.08
2022-08-31T07:14:42.208Z,18.21
2022-08-31T07:17:18.318Z,18.35
2022-08-31T07:19:46.208Z,18.50
2022-08-31T07:22:15.523Z,18.64
2022-08-31T07:24:43.587Z,18.77
2022-08-31T07:27:18.394Z,18.90
2022-08-31T07:29:46.518Z,19.05
2022-08-31T07:32:16.172Z,19.18
2022-08-31T07:34:44.449Z,19.33
2022-08-31T07:37:30.964Z,19.49
2022-08-31T07:40:17.745Z,19.67
2022-08-31T07:42:47.066Z,19.87
2022-08-31T07:45:23.024Z,20.06
2022-08-31T07:47:53.057Z,20.29
2022-08-31T07:50:22.996Z,20.57
2022-08-31T07:52:54.579Z,20.85
2022-08-31T07:55:25.340Z,21.18
2022-08-31T07:57:55.177Z,21.48
2022-08-31T08:00:29.139Z,21.80
2022-08-31T08:03:01.791Z,22.11
2022-08-31T08:05:37.517Z,22.43
2022-08-31T08:08:09.569Z,22.71
2022-08-31T08:10:43.577Z,22.92
2022-08-31T08:13:12.753Z,23.06
2022-08-31T08:15:40.824Z,23.17
2022-08-31T08:18:11.013Z,23.23
2022-08-31T08:20:40.525Z,23.33
2022-08-31T08:23:15.639Z,23.38
2022-08-31T08:26:01.325Z,23.49
2022-08-31T08:28:40.186Z,23.58
2022-08-31T08:31:20.135Z,23.63
2022-08-31T08:33:51.276Z,23.65
2022-08-31T08:36:19.931Z,23.67
2022-08-31T08:38:51.330Z,23.78
2022-08-31T08:41:29.851Z,23.85
2022-08-31T08:44:04.103Z,23.89
2022-08-31T08:47:03.648Z,23.87
2022-08-31T08:49:48.811Z,23.75
2022-08-31T08:52:28.929Z,23.55
2022-08-31T08:55:09.473Z,23.36
2022-08-31T08:57:42.777Z,23.14
2022-08-31T09:00:25.196Z,22.94
2022-08-31T09:03:21.544Z,22.74
2022-08-31T09:06:08.334Z,22.59
2022-08-31T09:08:42.438Z,22.54
2022-08-31T09:11:50.339Z,22.53
2022-08-31T09:14:48.519Z,22.47
2022-08-31T09:17:41.877Z,22.38
2022-08-31T09:20:13.382Z,22.27
2022-08-31T09:22:51.843Z,22.18
2022-08-31T09:25:30.042Z,22.13
2022-08-31T09:28:07.604Z,22.16
2022-08-31T09:30:52.440Z,22.21
2022-08-31T09:33:47.246Z,22.23
2022-08-31T09:36:16.547Z,22.28
2022-08-31T09:38:47.017Z,22.38
2022-08-31T09:41:33.420Z,22.64
2022-08-31T09:44:34.364Z,23.03
2022-08-31T09:47:52.543Z,23.54
2022-08-31T09:50:45.632Z,23.94
2022-08-31T09:53:45.333Z,24.22
2022-08-31T09:56:23.187Z,24.55
2022-08-31T09:58:55.525Z,24.71
2022-08-31T10:01:45.343Z,24.62
2022-08-31T10:04:28.113Z,24.49
2022-08-31T10:07:07.037Z,24.35
2022-08-31T10:09:57.495Z,24.20
2022-08-31T10:12:51.649Z,24.06
2022-08-31T10:15:33.695Z,23.96
2022-08-31T10:18:44.926Z,23.88
2022-08-31T10:21:21.512Z,23.74
2022-08-31T10:23:57.563Z,23.70
2022-08-31T10:26:37.952Z,23.71
2022-08-31T10:29:20.799Z,23.69
2022-08-31T10:31:55.888Z,23.64
2022-08-31T10:34:47.307Z,23.65
2022-08-31T10:37:36.841Z,23.83
2022-08-31T10:40:23.645Z,24.07
2022-08-31T10:43:18.001Z,24.39
2022-08-31T10:45:56.141Z,24.80
2022-08-31T10:48:26.371Z,25.15
2022-08-31T10:51:27.650Z,25.41
2022-08-31T10:54:03.032Z,25.68
2022-08-31T10:56:41.718Z,25.82
2022-08-31T10:59:30.430Z,25.91
2022-08-31T11:02:40.672Z,26.00
2022-08-31T11:05:41.611Z,26.13
2022-08-31T11:08:59.116Z,26.24
2022-08-31T11:11:47.604Z,26.37
2022-08-31T11:14:45.524Z,26.48
2022-08-31T11:17:47.505Z,26.59
2022-08-31T11:20:39.956Z,26.75
2022-08-31T11:23:32.477Z,26.90
2022-08-31T11:26:12.685Z,27.03
2022-08-31T11:28:49.802Z,27.13
2022-08-31T11:31:25.301Z,27.28
2022-08-31T11:34:25.912Z,27.44
2022-08-31T11:37:01.195Z,27.53
2022-08-31T11:39:36.019Z,27.53
2022-08-31T11:42:20.644Z,27.49
2022-08-31T11:45:13.953Z,27.44
2022-08-31T11:47:43.446Z,27.44
2022-08-31T11:50:48.212Z,27.57
2022-08-31T11:53:44.571Z,27.77
2022-08-31T11:56:15.314Z,27.85
2022-08-31T11:58:52.025Z,27.88
2022-08-31T12:01:19.875Z,27.83
2022-08-31T12:04:03.534Z,27.69
2022-08-31T12:06:37.342Z,27.48
2022-08-31T12:09:23.563Z,27.24
2022-08-31T12:12:12.845Z,26.97
2022-08-31T12:15:07.943Z,26.70
2022-08-31T12:17:50.003Z,26.41
2022-08-31T12:21:16.016Z,26.14
2022-08-31T12:23:51.332Z,25.82
2022-08-31T12:26:45.420Z,25.59
2022-08-31T12:29:35.034Z,25.37
2022-08-31T12:32:40.071Z,25.16
2022-08-31T12:35:24.837Z,24.95
2022-08-31T12:38:08.813Z,24.78
2022-08-31T12:40:48.844Z,24.62
2022-08-31T12:43:19.598Z,24.48
2022-08-31T12:46:00.430Z,24.37
2022-08-31T12:48:44.030Z,24.25
2022-08-31T12:51:57.057Z,24.14
2022-08-31T12:54:56.457Z,24.04
2022-08-31T12:57:50.881Z,23.96
2022-08-31T13:00:26.279Z,23.92
2022-08-31T13:03:23.484Z,23.86
2022-08-31T13:06:08.423Z,23.79
2022-08-31T13:08:50.144Z,23.75
2022-08-31T13:11:40.058Z,23.71
2022-08-31T13:14:24.757Z,23.70
2022-08-31T13:16:59.651Z,23.71
2022-08-31T13:19:30.882Z,23.75
2022-08-31T13:22:08.965Z,23.77
2022-08-31T13:24:46.028Z,23.81
2022-08-31T13:27:28.562Z,23.88
2022-08-31T13:30:00.202Z,23.94
2022-08-31T13:32:36.683Z,23.99
2022-08-31T13:35:10.612Z,24.03
2022-08-31T13:37:45.223Z,24.07
2022-08-31T13:40:18.014Z,24.09
2022-08-31T13:42:56.938Z,24.09
2022-08-31T13:45:32.518Z,24.06
2022-08-31T13:48:05.752Z,24.01
2022-08-31T13:50:53.394Z,23.97
2022-08-31T13:53:41.364Z,23.92
2022-08-31T13:56:46.606Z,23.85
2022-08-31T13:59:23.217Z,23.79
2022-08-31T14:02:15.644Z,23.74
2022-08-31T14:04:44.163Z,23.69
2022-08-31T14:07:43.899Z,23.65
2022-08-31T14:10:20.532Z,23.60
2022-08-31T14:13:14.635Z,23.55
2022-08-31T14:15:56.703Z,23.47
2022-08-31T14:18:43.272Z,23.40
2022-08-31T14:21:21.766Z,23.33
2022-08-31T14:23:52.896Z,23.25
2022-08-31T14:26:28.102Z,23.20
2022-08-31T14:29:00.626Z,23.13
2022-08-31T14:31:49.569Z,23.06
2022-08-31T14:34:30.453Z,22.98
2022-08-31T14:37:06.766Z,22.92
2022-08-31T14:39:46.196Z,22.87
2022-08-31T14:42:26.681Z,22.82
2022-08-31T14:45:09.015Z,22.77
2022-08-31T14:47:44.142Z,22.72
2022-08-31T14:50:18.264Z,22.68
2022-08-31T14:52:53.030Z,22.66
2022-08-31T14:55:44.104Z,22.64
2022-08-31T14:58:17.492Z,22.61
2022-08-31T15:00:53.464Z,22.60
2022-08-31T15:03:31.763Z,22.59
2022-08-31T15:06:10.605Z,22.58
2022-08-31T15:09:03.265Z,22.57
2022-08-31T15:11:37.381Z,22.56
2022-08-31T15:14:15.653Z,22.55
2022-08-31T15:16:51.206Z,22.53
2022-08-31T15:19:19.849Z,22.52
2022-08-31T15:21:58.795Z,22.53
2022-08-31T15:24:31.444Z,22.51
2022-08-31T15:27:01.845Z,22.50
2022-08-31T15:29:31.127Z,22.49
2022-08-31T15:32:39.432Z,22.48
2022-08-31T15:35:06.355Z,22.48
2022-08-31T15:37:58.997Z,22.48
2022-08-31T15:40:36.613Z,22.47
2022-08-31T15:43:18.166Z,22.47
2022-08-31T15:45:52.020Z,22.47
2022-08-31T15:48:39.469Z,22.45
2022-08-31T15:51:28.949Z,22.46
2022-08-31T15:54:21.286Z,22.46
2022-08-31T15:56:56.738Z,22.45
2022-08-31T15:59:27.554Z,22.45
2022-08-31T16:01:57.971Z,22.44
2022-08-31T16:05:08.686Z,22.44
2022-08-31T16:07:37.314Z,22.44
2022-08-31T16:10:19.321Z,22.43
2022-08-31T16:12:56.114Z,22.43
2022-08-31T16:15:34.032Z,22.43
2022-08-31T16:18:06.201Z,22.42
2022-08-31T16:20:39.186Z,22.42
2022-08-31T16:23:07.879Z,22.40
2022-08-31T16:25:48.326Z,22.40
2022-08-31T16:28:24.752Z,22.37
2022-08-31T16:30:58.280Z,22.36
2022-08-31T16:33:26.689Z,22.33
2022-08-31T16:35:55.984Z,22.30
2022-08-31T16:38:24.037Z,22.27
2022-08-31T16:40:53.617Z,22.23
2022-08-31T16:43:24.810Z,22.20
2022-08-31T16:45:55.684Z,22.16
2022-08-31T16:48:43.603Z,22.13
2022-08-31T16:51:15.115Z,22.08
2022-08-31T16:56:41.464Z,21.97
2022-08-31T16:59:11.292Z,21.92
2022-08-31T17:01:44.344Z,21.87
2022-08-31T17:04:34.765Z,21.80
2022-08-31T17:07:05.109Z,21.72
2022-08-31T17:09:33.276Z,21.66
2022-08-31T17:12:08.664Z,21.59
2022-08-31T17:14:50.205Z,21.52
2022-08-31T17:17:25.348Z,21.44
2022-08-31T17:19:56.166Z,21.37
2022-08-31T17:22:32.408Z,21.30
2022-08-31T17:25:03.987Z,21.23
2022-08-31T17:27:33.804Z,21.17
2022-08-31T17:30:06.258Z,21.12
2022-08-31T17:32:39.375Z,21.07
2022-08-31T17:35:18.344Z,21.04
2022-08-31T17:37:47.902Z,21.00
2022-08-31T17:40:16.946Z,20.96
2022-08-31T17:42:45.056Z,20.93
2022-08-31T17:45:15.663Z,20.89
2022-08-31T17:47:46.221Z,20.86
2022-08-31T17:50:22.064Z,20.82
2022-08-31T17:52:49.910Z,20.78
2022-08-31T17:55:18.001Z,20.74
2022-08-31T17:57:46.085Z,20.70
2022-08-31T18:00:15.525Z,20.65
2022-08-31T18:02:44.677Z,20.62
2022-08-31T18:05:16.479Z,20.58
2022-08-31T18:07:44.389Z,20.55
2022-08-31T18:10:12.696Z,20.51
2022-08-31T18:12:42.225Z,20.48
2022-08-31T18:15:12.770Z,20.45
2022-08-31T18:17:40.760Z,20.42
2022-08-31T18:20:09.616Z,20.39
2022-08-31T18:22:37.534Z,20.36
2022-08-31T18:25:06.348Z,20.33
2022-08-31T18:27:34.317Z,20.30
2022-08-31T18:30:02.445Z,20.27
2022-08-31T18:32:36.419Z,20.25
2022-08-31T18:35:17.916Z,20.23
2022-08-31T18:37:46.100Z,20.20
2022-08-31T18:40:34.109Z,20.17
2022-08-31T18:43:21.062Z,20.15
2022-08-31T18:45:50.402Z,20.12
2022-08-31T18:48:25.802Z,20.10
2022-08-31T18:50:59.037Z,20.08
2022-08-31T18:53:30.383Z,20.06
2022-08-31T18:56:10.089Z,20.03
2022-08-31T18:58:39.006Z,20.01
2022-08-31T19:01:10.612Z,19.98
2022-08-31T19:03:40.465Z,19.95
2022-08-31T19:06:09.331Z,19.92
2022-08-31T19:08:37.652Z,19.90
2022-08-31T19:11:13.404Z,19.87
2022-08-31T19:13:57.485Z,19.84
2022-08-31T19:16:32.477Z,19.82
2022-08-31T19:19:01.031Z,19.79
2022-08-31T19:21:38.654Z,19.76
2022-08-31T19:24:15.170Z,19.72
2022-08-31T19:26:56.495Z,19.69
2022-08-31T19:29:28.145Z,19.64
2022-08-31T19:31:59.596Z,19.60
2022-08-31T19:34:34.942Z,19.56
2022-08-31T19:37:16.954Z,19.50
2022-08-31T19:39:46.387Z,19.45
2022-08-31T19:42:16.464Z,19.40
2022-08-31T19:44:55.872Z,19.35
2022-08-31T19:47:42.069Z,19.28
2022-08-31T19:50:15.575Z,19.23
2022-08-31T19:52:44.832Z,19.17
2022-08-31T19:55:13.833Z,19.13
2022-08-31T19:57:43.614Z,19.08
2022-08-31T20:00:20.513Z,19.04
2022-08-31T20:02:49.430Z,18.99
2022-08-31T20:05:23.114Z,18.95
2022-08-31T20:07:57.167Z,18.91
2022-08-31T20:10:28.857Z,18.86
2022-08-31T20:12:58.381Z,18.81
2022-08-31T20:15:26.202Z,18.76
2022-08-31T20:17:57.827Z,18.72
2022-08-31T20:20:29.055Z,18.67
2022-08-31T20:22:56.834Z,18.63
2022-08-31T20:25:26.785Z,18.58
2022-08-31T20:27:56.512Z,18.53
2022-08-31T20:30:24.481Z,18.48
2022-08-31T20:32:52.415Z,18.44
2022-08-31T20:35:20.251Z,18.38
2022-08-31T20:37:48.097Z,18.34
2022-08-31T20:40:17.247Z,18.29
2022-08-31T20:42:45.290Z,18.26
2022-08-31T20:45:13.085Z,18.21
2022-08-31T20:47:59.256Z,18.17
2022-08-31T20:50:29.436Z,18.12
2022-08-31T20:52:57.273Z,18.07
2022-08-31T20:55:25.108Z,18.02
2022-08-31T20:57:53.042Z,17.98
2022-08-31T21:00:20.815Z,17.93
2022-08-31T21:02:50.011Z,17.88
2022-08-31T21:08:06.226Z,17.78
2022-08-31T21:10:37.723Z,17.74
2022-08-31T21:13:09.677Z,17.69
2022-08-31T21:15:44.173Z,17.64
2022-08-31T21:18:17.791Z,17.58
2022-08-31T21:20:46.541Z,17.54
2022-08-31T21:23:15.277Z,17.49
2022-08-31T21:25:45.932Z,17.45
2022-08-31T21:28:17.725Z,17.41
2022-08-31T21:30:49.753Z,17.35
2022-08-31T21:33:18.951Z,17.30
2022-08-31T21:35:47.789Z,17.25
2022-08-31T21:38:15.597Z,17.18
2022-08-31T21:40:49.861Z,17.12
2022-08-31T21:43:18.520Z,17.07
2022-08-31T21:45:46.843Z,17.02
2022-08-31T21:48:14.724Z,16.96
2022-08-31T21:50:42.658Z,16.91
2022-08-31T21:53:11.497Z,16.86
2022-08-31T21:55:39.366Z,16.82
2022-08-31T21:58:07.221Z,16.82
2022-08-31T22:00:41.839Z,16.82
2022-08-31T22:03:10.582Z,16.81
2022-08-31T22:05:43.496Z,16.79
2022-08-31T22:08:11.391Z,16.77
2022-08-31T22:10:42.399Z,16.74
2022-08-31T22:13:12.252Z,16.72
2022-08-31T22:15:40.547Z,16.70
2022-08-31T22:20:58.583Z,16.66
2022-08-31T22:23:26.412Z,16.63
2022-08-31T22:25:54.369Z,16.61
2022-08-31T22:28:27.631Z,16.58
2022-08-31T22:30:56.344Z,16.56
2022-08-31T22:33:24.132Z,16.54
2022-08-31T22:35:52.023Z,16.52
2022-08-31T22:38:19.927Z,16.50
2022-08-31T22:40:50.019Z,16.47
2022-08-31T22:43:18.062Z,16.45
2022-08-31T22:45:48.657Z,16.43
2022-08-31T22:48:16.850Z,16.40
2022-08-31T22:50:44.598Z,16.37
2022-08-31T22:53:12.463Z,16.35
2022-08-31T22:55:41.294Z,16.32
2022-08-31T22:58:09.498Z,16.30
2022-08-31T23:00:37.335Z,16.28
2022-08-31T23:03:05.196Z,16.25
2022-08-31T23:05:35.512Z,16.23
2022-08-31T23:08:03.519Z,16.20
2022-08-31T23:10:32.693Z,16.18
2022-08-31T23:13:01.869Z,16.15
2022-08-31T23:15:31.273Z,16.13
2022-08-31T23:17:59.445Z,16.10
2022-08-31T23:20:27.553Z,16.08
2022-08-31T23:22:56.358Z,16.05
2022-08-31T23:25:24.727Z,16.02
2022-08-31T23:27:53.437Z,15.99
2022-08-31T23:30:22.913Z,15.97
2022-08-31T23:32:52.506Z,15.94
2022-08-31T23:35:21.952Z,15.91
2022-08-31T23:37:50.024Z,15.88
2022-08-31T23:40:17.976Z,15.85
2022-08-31T23:42:45.824Z,15.83
2022-08-31T23:45:13.689Z,15.81
2022-08-31T23:47:41.426Z,15.79
2022-08-31T23:50:10.222Z,15.78
2022-08-31T23:52:41.675Z,15.75
2022-08-31T23:55:11.074Z,15.73
2022-08-31T23:57:39.939Z,15.71
